Aérodrome :
LOGIN :

S'inscrire | Disclaimer

   EN    FR    IT 

 










Légende :    VFR   VFR Marginal   IFR   IFR Intensif   IFR Très Intensif
Visi : 
Plafond : 
>= 8 km
>= 3000ft
5 à 8 km
1000 à 3000 ft
1500m à 5 km
500 à 1000 ft
800 à 1500m
200 à 500 ft
< 800m
< 200 ft
Symboles :   Orages  Brouillard  Fortes neiges  Fortes précipitations  Vent > 20 kt
SIGMETs :   Divers  Orages  Givrage  Turbulence  Onde Orograph.  Cendres Volcan.






- Altitude de l'aérodrome : 34 ft
- Code IATA : BLK


EGNH - Blackpool

DERNIER METAR :
  • 131520Z 33006KT 290V010 9999 FEW036 SCT046 15/10 Q1014

METARs EXPIRÉS :
  • 131450Z 35007KT 320V030 9999 SCT036 BKN040 16/10 Q1013
  • 131420Z 33008KT 300V360 9999 SCT036 17/10 Q1013
  • 131350Z 33008KT 9999 FEW013 SCT030 17/10 Q1013
  • 131320Z 34006KT 300V020 9999 FEW026 SCT041 17/10 Q1014
  • 131250Z 34008KT 310V010 9999 FEW026 SCT041CB 17/10 Q1014
  • 131220Z 33007KT 300V010 9999 FEW026 SCT037 17/10 Q1014
  • 131150Z 34005KT 290V040 9999 SCT026 17/11 Q1014
  • 131120Z 05004KT 360V120 9999 SCT022 BKN049 16/10 Q1014
  • 131050Z 05006KT 020V100 9999 SCT020 BKN032 16/10 Q1014

TAF TAF EGNH
Valide du 13 à 15h jusqu'au 13 à 20h UTC


131357Z 1315/1320 35006KT 9999 SCT035
PROB30
TEMPO 1315/1320 7000 SHRA
ATIS : +44 1253 343 434 (x8315)



MET'MAP, la Météo Aéronautique d'un coup d'oeil ! - Copyright ORBIFLY Décembre 2007 - Disclaimer

ORBIFLY MET'MAP TEAM :

Programmation & Développement : Alexandra Zaïnal
Sur une idée originale de : Baudouin d'Aumeries
Soutien technique & logistique : Manuel Goepfert
Assistance : Marc-Olivier Méhu




SOURCES & CREDITS :

   NOAA